Terminal Aerodrome Forecast
Issued by NWS Sterling, VA

Current Version | Previous Version | Graphics & Text | Print | Product List | Glossary On
Versions: 1 2 3 4 5 6 7 8 9 10 11 12 13 14 15 16 17 18 19 20 21 22 23 24 25 26 27
000
FTUS41 KLWX 211459 AAC
TAFIAD
TAF AMD
KIAD 211459Z 2115/2218 VRB05KT 3SM -RA SCT008 BKN012 OVC035
      TEMPO 2115/2119 2SM RA BR BKN008 OVC012
     FM212200 VRB04KT 5SM -DZ BR BKN015
     FM220000 35005KT P6SM BKN035
     FM220500 30006KT P6SM SCT060
     FM221400 30011KT P6SM FEW250=

USA.gov is the U.S. government's official web portal to all federal, state and local government web resources and services.